Station Historical Data
Daily Summary for February 21, 2017 Units:  Metric    English   Both
« Previous Day
Next Day »
Daily Weekly Monthly Yearly Custom
  High: Low: Average:
Temperature: 15.7 °C -0.7 °C 7 °C
Dew Point: 6.1 °C -6.9 °C 0.2 °C
Humidity: 88% 40% 64%
Wind Speed: 14.5km/h 0km/h 3.7km/h
Wind Gust: 24.1km/h - -
Wind- - South
Pressure: 1024.3 hPa 1013.1 hPa -
Precipitation: 0 mm    
Historical Graphs
 
 
Tabular Data for February 21, 2017
Time Temperature Dew Point Pressure Wind Wind Speed Wind Gust Humidity Rainfall Rate (Hourly)
00:04 -0.7 °C -6.8 °C 1024.3 hPa ENE 6.4 km/h 16.1 km/h 63% 0 mm
00:09 -0.6 °C -6.8 °C 1024.3 hPa ENE 6.4 km/h 16.1 km/h 63% 0 mm
00:14 -0.6 °C -6.8 °C 1024.3 hPa ENE 3.2 km/h 12.9 km/h 63% 0 mm
00:19 -0.6 °C -6.8 °C 1024.3 hPa ENE 4.8 km/h 11.3 km/h 63% 0 mm
00:24 -0.6 °C -6.8 °C 1024.3 hPa NE 3.2 km/h 11.3 km/h 63% 0 mm
00:29 -0.6 °C -6.8 °C 1024.3 hPa NE 3.2 km/h 8 km/h 63% 0 mm
00:34 -0.7 °C -6.8 °C 1024.3 hPa ENE 3.2 km/h 9.7 km/h 63% 0 mm
00:39 -0.7 °C -6.8 °C 1023.9 hPa ENE 4.8 km/h 14.5 km/h 63% 0 mm
00:44 -0.7 °C -6.9 °C 1023.9 hPa ENE 4.8 km/h 14.5 km/h 63% 0 mm
00:49 -0.7 °C -6.7 °C 1023.6 hPa ENE 4.8 km/h 12.9 km/h 64% 0 mm
00:54 -0.6 °C -6.6 °C 1023.6 hPa ENE 3.2 km/h 14.5 km/h 64% 0 mm
00:59 -0.6 °C -6.7 °C 1023.6 hPa NE 1.6 km/h 8 km/h 63% 0 mm
01:04 -0.6 °C -6.6 °C 1023.6 hPa NE 1.6 km/h 8 km/h 64% 0 mm
01:09 -0.6 °C -6.6 °C 1023.6 hPa ENE 3.2 km/h 9.7 km/h 64% 0 mm
01:14 -0.5 °C -6.5 °C 1023.6 hPa ENE 3.2 km/h 9.7 km/h 64% 0 mm
01:19 -0.5 °C -6.5 °C 1023.2 hPa ENE 3.2 km/h 8 km/h 64% 0 mm
01:24 -0.5 °C -6.3 °C 1023.2 hPa ENE 3.2 km/h 6.4 km/h 65% 0 mm
01:29 -0.5 °C -6.3 °C 1023.2 hPa NE 3.2 km/h 8 km/h 65% 0 mm
01:34 -0.4 °C -6.2 °C 1023.2 hPa NE 6.4 km/h 8 km/h 65% 0 mm
01:39 -0.3 °C -6.1 °C 1023.2 hPa NE 4.8 km/h 8 km/h 65% 0 mm
01:44 -0.3 °C -6.1 °C 1023.2 hPa NE 4.8 km/h 11.3 km/h 65% 0 mm
01:49 -0.3 °C -6.1 °C 1022.9 hPa NE 4.8 km/h 11.3 km/h 65% 0 mm
01:54 -0.3 °C -5.9 °C 1022.9 hPa ENE 3.2 km/h 9.7 km/h 66% 0 mm
01:59 -0.2 °C -5.8 °C 1022.9 hPa NE 3.2 km/h 8 km/h 66% 0 mm
02:04 -0.2 °C -5.8 °C 1022.6 hPa NE 4.8 km/h 8 km/h 66% 0 mm
02:09 -0.2 °C -5.8 °C 1022.6 hPa NE 4.8 km/h 9.7 km/h 66% 0 mm
02:14 -0.1 °C -5.7 °C 1022.6 hPa NE 3.2 km/h 9.7 km/h 66% 0 mm
02:19 -0.1 °C -5.7 °C 1022.6 hPa NE 3.2 km/h 6.4 km/h 66% 0 mm
02:24 -0.1 °C -5.7 °C 1022.6 hPa NE 1.6 km/h 6.4 km/h 66% 0 mm
02:29 -0.1 °C -5.7 °C 1022.2 hPa NE 4.8 km/h 6.4 km/h 66% 0 mm
02:34 -0.1 °C -5.4 °C 1022.2 hPa NE 3.2 km/h 4.8 km/h 67% 0 mm
02:39 0 °C -5.6 °C 1022.2 hPa ENE 3.2 km/h 6.4 km/h 66% 0 mm
02:44 0.1 °C -5.5 °C 1022.2 hPa ENE 3.2 km/h 6.4 km/h 66% 0 mm
02:49 0.2 °C -5.4 °C 1022.2 hPa ENE 3.2 km/h 6.4 km/h 66% 0 mm
02:54 0.2 °C -5.4 °C 1022.2 hPa ENE 3.2 km/h 8 km/h 66% 0 mm
02:59 0.3 °C -5.3 °C 1021.9 hPa ENE 3.2 km/h 8 km/h 66% 0 mm
03:04 0.3 °C -5.3 °C 1021.9 hPa ENE 3.2 km/h 8 km/h 66% 0 mm
03:09 0.3 °C -5.3 °C 1021.9 hPa ENE 1.6 km/h 4.8 km/h 66% 0 mm
03:14 0.3 °C -5.3 °C 1021.6 hPa ENE 4.8 km/h 8 km/h 66% 0 mm
03:19 0.4 °C -5.2 °C 1021.6 hPa NE 4.8 km/h 6.4 km/h 66% 0 mm
03:24 0.4 °C -5.2 °C 1021.2 hPa ENE 3.2 km/h 8 km/h 66% 0 mm
03:29 0.6 °C -5.1 °C 1021.2 hPa NE 3.2 km/h 8 km/h 66% 0 mm
03:34 0.6 °C -5.1 °C 1021.6 hPa Calm   4.8 km/h 66% 0 mm
03:39 0.6 °C -5 °C 1021.6 hPa Calm     66% 0 mm
03:44 0.6 °C -4.9 °C 1021.6 hPa Calm     67% 0 mm
03:49 0.4 °C -5 °C 1021.6 hPa Calm     67% 0 mm
03:54 0.4 °C -5.1 °C 1021.6 hPa Calm     67% 0 mm
03:59 0.2 °C -5 °C 1021.2 hPa Calm     68% 0 mm
04:04 0.3 °C -4.9 °C 1021.2 hPa Calm     68% 0 mm
04:09 0.4 °C -4.8 °C 1021.2 hPa Calm     68% 0 mm
04:14 0.4 °C -4.8 °C 1021.2 hPa Calm     68% 0 mm
04:19 0.4 °C -4.8 °C 1020.9 hPa Calm     68% 0 mm
04:24 0.4 °C -4.8 °C 1020.9 hPa Calm     68% 0 mm
04:29 0.7 °C -4.8 °C 1020.9 hPa Calm     67% 0 mm
04:34 0.8 °C -4.7 °C 1020.5 hPa Calm     67% 0 mm
04:39 0.9 °C -4.7 °C 1020.5 hPa Calm     66% 0 mm
04:44 1 °C -4.7 °C 1020.5 hPa Calm     66% 0 mm
04:49 1.1 °C -4.7 °C 1020.5 hPa Calm     65% 0 mm
04:54 0.8 °C -4.8 °C 1020.5 hPa Calm     66% 0 mm
04:59 0.7 °C -4.8 °C 1020.5 hPa Calm     67% 0 mm
05:04 0.4 °C -4.8 °C 1020.5 hPa Calm     68% 0 mm
05:09 0.2 °C -5.1 °C 1020.5 hPa Calm     68% 0 mm
05:14 0 °C -5 °C 1020.5 hPa Calm     69% 0 mm
05:19 -0.2 °C -5 °C 1020.2 hPa Calm     70% 0 mm
05:24 0 °C -4.8 °C 1020.2 hPa Calm     70% 0 mm
05:29 0.1 °C -4.9 °C 1019.9 hPa Calm     69% 0 mm
05:34 0 °C -5 °C 1019.9 hPa Calm     69% 0 mm
05:39 0.3 °C -4.6 °C 1019.5 hPa Calm     70% 0 mm
05:44 0.7 °C -4.5 °C 1019.5 hPa Calm   3.2 km/h 68% 0 mm
05:49 1.1 °C -4.3 °C 1019.5 hPa Calm   4.8 km/h 67% 0 mm
05:54 1.3 °C -4.3 °C 1019.5 hPa Calm   3.2 km/h 66% 0 mm
05:59 1.7 °C -4.2 °C 1019.2 hPa Calm   4.8 km/h 65% 0 mm
06:04 1.8 °C -4.3 °C 1019.2 hPa Calm   3.2 km/h 64% 0 mm
06:09 1.9 °C -4.2 °C 1019.5 hPa Calm   3.2 km/h 64% 0 mm
06:14 1.7 °C -4.2 °C 1019.5 hPa Calm     65% 0 mm
06:19 1.5 °C -4.2 °C 1019.9 hPa Calm     66% 0 mm
06:24 1.5 °C -4.4 °C 1019.5 hPa Calm     65% 0 mm
06:29 1.4 °C -4.2 °C 1019.5 hPa Calm     66% 0 mm
06:34 1.7 °C -4 °C 1019.2 hPa East 1.6 km/h 4.8 km/h 66% 0 mm
06:39 2.1 °C -4 °C 1019.2 hPa East 1.6 km/h 4.8 km/h 64% 0 mm
06:44 2.2 °C -3.9 °C 1019.2 hPa Calm   1.6 km/h 64% 0 mm
06:49 1.9 °C -4.2 °C 1018.8 hPa Calm   3.2 km/h 64% 0 mm
06:54 2.2 °C -4.2 °C 1018.8 hPa Calm   3.2 km/h 63% 0 mm
06:59 2.2 °C -4.1 °C 1018.8 hPa Calm   1.6 km/h 63% 0 mm
07:04 1.9 °C -3.8 °C 1018.8 hPa Calm     66% 0 mm
07:09 1.8 °C -3.8 °C 1018.8 hPa Calm     66% 0 mm
07:14 1.8 °C -3.8 °C 1018.8 hPa Calm     66% 0 mm
07:19 2.1 °C -3.7 °C 1018.8 hPa Calm     66% 0 mm
07:24 2 °C -3.5 °C 1018.8 hPa Calm     67% 0 mm
07:29 1.8 °C -3.5 °C 1019.2 hPa Calm     68% 0 mm
07:34 1.6 °C -3.7 °C 1019.2 hPa Calm     68% 0 mm
07:39 1.6 °C -3.7 °C 1019.2 hPa Calm     68% 0 mm
07:44 1.6 °C -3.5 °C 1018.8 hPa Calm     69% 0 mm
07:49 1.6 °C -3.5 °C 1018.8 hPa Calm     69% 0 mm
07:54 2.3 °C -3.2 °C 1018.8 hPa SE 4.8 km/h 4.8 km/h 67% 0 mm
07:59 3.2 °C -3.2 °C 1018.5 hPa Calm   4.8 km/h 63% 0 mm
08:04 3.4 °C -3.2 °C 1018.5 hPa Calm   4.8 km/h 62% 0 mm
08:09 3.7 °C -2.9 °C 1018.2 hPa ESE 1.6 km/h 6.4 km/h 62% 0 mm
08:14 3.9 °C -2.9 °C 1018.2 hPa ESE 1.6 km/h 6.4 km/h 61% 0 mm
08:19 4.2 °C -2.9 °C 1018.2 hPa SE 3.2 km/h 6.4 km/h 60% 0 mm
08:24 4.6 °C -2.8 °C 1018.5 hPa SE 3.2 km/h 6.4 km/h 59% 0 mm
08:29 4.9 °C -2.7 °C 1018.5 hPa SSE 3.2 km/h 4.8 km/h 58% 0 mm
08:34 5.2 °C -2.4 °C 1018.5 hPa South 1.6 km/h 6.4 km/h 58% 0 mm
08:39 5.6 °C -2.3 °C 1018.2 hPa SSE 3.2 km/h 4.8 km/h 57% 0 mm
08:44 5.9 °C -2.5 °C 1018.5 hPa South 1.6 km/h 6.4 km/h 55% 0 mm
08:49 6 °C -2.1 °C 1018.5 hPa SSE 1.6 km/h 4.8 km/h 56% 0 mm
08:54 6.3 °C -2.3 °C 1018.2 hPa SE 3.2 km/h 6.4 km/h 54% 0 mm
08:59 6.4 °C -2.3 °C 1017.8 hPa Calm   8 km/h 54% 0 mm
09:04 6.8 °C -2.1 °C 1017.8 hPa SSE 3.2 km/h 4.8 km/h 53% 0 mm
09:09 7.2 °C -2.1 °C 1017.8 hPa SSE 3.2 km/h 4.8 km/h 52% 0 mm
09:14 7.2 °C -2.3 °C 1017.5 hPa SSE 3.2 km/h 8 km/h 51% 0 mm
09:19 7.2 °C -2 °C 1017.8 hPa SE 3.2 km/h 8 km/h 52% 0 mm
09:24 7.4 °C -2.1 °C 1017.8 hPa SE 1.6 km/h 6.4 km/h 51% 0 mm
09:29 7.7 °C -2.1 °C 1017.8 hPa South 1.6 km/h 6.4 km/h 50% 0 mm
09:34 8 °C -1.6 °C 1017.8 hPa South 3.2 km/h 6.4 km/h 51% 0 mm
09:39 8.4 °C -1.4 °C 1017.8 hPa SSW 4.8 km/h 8 km/h 50% 0 mm
09:44 8.6 °C -1.5 °C 1017.5 hPa SSE 6.4 km/h 9.7 km/h 49% 0 mm
09:49 8.8 °C -1.3 °C 1017.5 hPa South 4.8 km/h 9.7 km/h 49% 0 mm
09:54 9 °C -0.9 °C 1017.2 hPa South 6.4 km/h 8 km/h 50% 0 mm
09:59 9.3 °C -1.1 °C 1017.5 hPa SSW 3.2 km/h 9.7 km/h 48% 0 mm
10:04 9.6 °C -0.9 °C 1017.2 hPa SSW 1.6 km/h 12.9 km/h 48% 0 mm
10:09 9.8 °C -1 °C 1017.2 hPa SSE 6.4 km/h 11.3 km/h 47% 0 mm
10:14 9.9 °C -0.8 °C 1016.8 hPa South 3.2 km/h 12.9 km/h 47% 0 mm
10:19 10.2 °C -0.7 °C 1016.8 hPa SSE 4.8 km/h 11.3 km/h 47% 0 mm
10:24 10.4 °C -0.7 °C 1016.8 hPa South 4.8 km/h 11.3 km/h 46% 0 mm
10:29 10.7 °C -0.2 °C 1017.2 hPa SSW 4.8 km/h 11.3 km/h 47% 0 mm
10:34 11.1 °C -0.4 °C 1017.2 hPa SSW 4.8 km/h 11.3 km/h 45% 0 mm
10:39 11.4 °C -0.4 °C 1016.8 hPa South 6.4 km/h 12.9 km/h 44% 0 mm
10:44 11.7 °C -0.4 °C 1017.2 hPa South 8 km/h 12.9 km/h 43% 0 mm
10:49 11.9 °C -0.6 °C 1017.2 hPa SSE 6.4 km/h 14.5 km/h 42% 0 mm
10:54 12.1 °C -0.4 °C 1016.8 hPa SSW 8 km/h 20.9 km/h 42% 0 mm
10:59 12.2 °C -0.4 °C 1016.8 hPa SSW 8 km/h 20.9 km/h 42% 0 mm
11:04 12.2 °C -0.4 °C 1016.8 hPa SW 6.4 km/h 17.7 km/h 42% 0 mm
11:09 12.3 °C -0.6 °C 1016.8 hPa South 9.7 km/h 16.1 km/h 41% 0 mm
11:14 12.4 °C -0.1 °C 1016.8 hPa SSE 11.3 km/h 14.5 km/h 42% 0 mm
11:19 12.4 °C -0.1 °C 1016.8 hPa SSW 14.5 km/h 17.7 km/h 42% 0 mm
11:24 12.6 °C -0.3 °C 1016.5 hPa SW 11.3 km/h 24.1 km/h 41% 0 mm
11:29 12.7 °C -0.2 °C 1016.5 hPa SSW 11.3 km/h 24.1 km/h 41% 0 mm
11:34 12.8 °C -0.5 °C 1016.1 hPa SSW 11.3 km/h 22.5 km/h 40% 0 mm
11:39 12.9 °C -0.1 °C 1016.1 hPa SSW 11.3 km/h 22.5 km/h 41% 0 mm
11:44 12.8 °C -0.2 °C 1016.1 hPa SSW 11.3 km/h 22.5 km/h 41% 0 mm
11:49 12.9 °C 0.3 °C 1016.1 hPa SSW 11.3 km/h 22.5 km/h 42% 0 mm
11:54 12.9 °C 0 °C 1016.1 hPa SSW 11.3 km/h 20.9 km/h 41% 0 mm
11:59 12.9 °C 0 °C 1016.1 hPa SSW 6.4 km/h 19.3 km/h 41% 0 mm
12:04 12.9 °C 0.3 °C 1015.8 hPa South 6.4 km/h 17.7 km/h 42% 0 mm
12:09 13 °C 0.4 °C 1015.8 hPa SSW 6.4 km/h 14.5 km/h 42% 0 mm
12:14 13.1 °C 0.4 °C 1015.8 hPa SSW 6.4 km/h 19.3 km/h 42% 0 mm
12:19 13.2 °C 0.8 °C 1015.5 hPa SSW 4.8 km/h 11.3 km/h 43% 0 mm
12:24 13.3 °C 0.7 °C 1015.5 hPa WSW 9.7 km/h 12.9 km/h 42% 0 mm
12:29 13.4 °C 1.1 °C 1015.1 hPa South 4.8 km/h 11.3 km/h 43% 0 mm
12:34 13.5 °C 0.8 °C 1015.1 hPa South 6.4 km/h 12.9 km/h 42% 0 mm
12:39 13.7 °C 1 °C 1015.1 hPa SSW 6.4 km/h 14.5 km/h 42% 0 mm
12:44 13.8 °C 1.4 °C 1014.8 hPa SSW 6.4 km/h 17.7 km/h 43% 0 mm
12:49 14.1 °C 1.7 °C 1014.8 hPa SSW 6.4 km/h 17.7 km/h 43% 0 mm
12:54 14.3 °C 1.9 °C 1014.8 hPa SSW 8 km/h 14.5 km/h 43% 0 mm
12:59 14.7 °C 1.9 °C 1014.8 hPa SSW 8 km/h 17.7 km/h 42% 0 mm
13:04 14.8 °C 2.3 °C 1014.8 hPa SSW 6.4 km/h 16.1 km/h 43% 0 mm
13:09 14.8 °C 2.3 °C 1014.8 hPa SSW 8 km/h 16.1 km/h 43% 0 mm
13:14 14.8 °C 2.3 °C 1014.8 hPa SW 4.8 km/h 14.5 km/h 43% 0 mm
13:19 14.9 °C 2.7 °C 1014.8 hPa SW 4.8 km/h 11.3 km/h 44% 0 mm
13:24 15.2 °C 2.7 °C 1014.8 hPa SSW 11.3 km/h 11.3 km/h 43% 0 mm
13:29 15.3 °C 2.8 °C 1014.8 hPa SSW 3.2 km/h 11.3 km/h 43% 0 mm
13:34 15.1 °C 2.3 °C 1014.8 hPa SSW 9.7 km/h 20.9 km/h 42% 0 mm
13:39 15 °C 2.5 °C 1014.8 hPa SSW 8 km/h 20.9 km/h 43% 0 mm
13:44 14.9 °C 2.4 °C 1014.8 hPa SSW 8 km/h 17.7 km/h 43% 0 mm
13:49 15.1 °C 2.6 °C 1014.4 hPa SSW 8 km/h 14.5 km/h 43% 0 mm
13:54 15.2 °C 2.7 °C 1014.4 hPa SSW 8 km/h 14.5 km/h 43% 0 mm
13:59 15.3 °C 2.8 °C 1014.1 hPa SSW 8 km/h 16.1 km/h 43% 0 mm
14:04 15.3 °C 2.8 °C 1014.1 hPa South 1.6 km/h 12.9 km/h 43% 0 mm
14:09 15.4 °C 2.9 °C 1013.8 hPa SSW 9.7 km/h 12.9 km/h 43% 0 mm
14:14 15.4 °C 2.9 °C 1014.1 hPa SSW 8 km/h 17.7 km/h 43% 0 mm
14:19 15.5 °C 2.9 °C 1014.1 hPa South 12.9 km/h 16.1 km/h 43% 0 mm
14:24 15.6 °C 3.1 °C 1014.1 hPa South 8 km/h 12.9 km/h 43% 0 mm
14:29 15.7 °C 3.1 °C 1013.8 hPa South 4.8 km/h 11.3 km/h 43% 0 mm
14:34 15.7 °C 3.2 °C 1013.8 hPa SW 4.8 km/h 9.7 km/h 43% 0 mm
14:39 15.7 °C 2.8 °C 1013.4 hPa SSW 6.4 km/h 17.7 km/h 42% 0 mm
14:44 15.6 °C 3.1 °C 1013.4 hPa South 8 km/h 17.7 km/h 43% 0 mm
14:49 15.6 °C 2.7 °C 1013.4 hPa SSW 6.4 km/h 16.1 km/h 42% 0 mm
14:54 15.5 °C 2.6 °C 1013.4 hPa SSW 8 km/h 19.3 km/h 42% 0 mm
14:59 15.4 °C 3.2 °C 1013.4 hPa SSW 8 km/h 19.3 km/h 44% 0 mm
15:04 15.3 °C 3.1 °C 1013.4 hPa SSW 6.4 km/h 16.1 km/h 44% 0 mm
15:09 15.2 °C 3 °C 1013.1 hPa South 9.7 km/h 14.5 km/h 44% 0 mm
15:14 15.1 °C 2.9 °C 1013.4 hPa South 8 km/h 14.5 km/h 44% 0 mm
15:19 15 °C 2.8 °C 1013.4 hPa South 6.4 km/h 14.5 km/h 44% 0 mm
15:24 14.9 °C 2.8 °C 1013.4 hPa South 8 km/h 12.9 km/h 44% 0 mm
15:29 14.9 °C 2.4 °C 1013.4 hPa SW 8 km/h 16.1 km/h 43% 0 mm
15:34 14.8 °C 2.7 °C 1013.8 hPa SW 6.4 km/h 14.5 km/h 44% 0 mm
15:39 14.8 °C 2.6 °C 1013.8 hPa South 9.7 km/h 20.9 km/h 44% 0 mm
15:44 14.7 °C 2.9 °C 1014.1 hPa SW 8 km/h 20.9 km/h 45% 0 mm
15:49 14.7 °C 2.6 °C 1014.1 hPa SW 8 km/h 17.7 km/h 44% 0 mm
15:54 14.6 °C 2.7 °C 1013.8 hPa SSW 6.4 km/h 16.1 km/h 45% 0 mm
15:59 14.4 °C 2.7 °C 1014.1 hPa SW 6.4 km/h 16.1 km/h 45% 0 mm
16:04 14.3 °C 2.6 °C 1013.8 hPa SW 8 km/h 22.5 km/h 45% 0 mm
16:09 14.2 °C 2.8 °C 1013.8 hPa SSW 9.7 km/h 22.5 km/h 46% 0 mm
16:14 14 °C 3.2 °C 1013.8 hPa SW 8 km/h 17.7 km/h 48% 0 mm
16:19 13.8 °C 2.7 °C 1013.8 hPa SW 8 km/h 11.3 km/h 47% 0 mm
16:24 13.7 °C 3.4 °C 1014.1 hPa SW 11.3 km/h 14.5 km/h 50% 0 mm
16:29 13.5 °C 3.3 °C 1014.1 hPa SW 6.4 km/h 17.7 km/h 50% 0 mm
16:34 13.2 °C 3.8 °C 1014.1 hPa WSW 6.4 km/h 14.5 km/h 53% 0 mm
16:39 12.8 °C 4.4 °C 1014.1 hPa SSW 6.4 km/h 9.7 km/h 57% 0 mm
16:44 12.3 °C 4.9 °C 1014.1 hPa SW 6.4 km/h 9.7 km/h 61% 0.25 mm
16:49 11.7 °C 5.3 °C 1014.4 hPa SW 4.8 km/h 9.7 km/h 65% 0.25 mm
16:54 11.1 °C 5.2 °C 1014.4 hPa WSW 4.8 km/h 9.7 km/h 67% 0.51 mm
16:59 10.6 °C 5.1 °C 1014.8 hPa WSW 4.8 km/h 12.9 km/h 69% 0.76 mm
17:04 10 °C 4.8 °C 1014.8 hPa WSW 6.4 km/h 12.9 km/h 70% 0.76 mm
17:09 9.5 °C 4.9 °C 1014.8 hPa WSW 6.4 km/h 12.9 km/h 73% 1.02 mm
17:14 9.1 °C 4.8 °C 1014.8 hPa WSW 4.8 km/h 11.3 km/h 75% 1.02 mm
17:19 8.7 °C 4.8 °C 1014.4 hPa WSW 3.2 km/h 8 km/h 77% 1.27 mm
17:24 8.4 °C 4.8 °C 1014.4 hPa SW 4.8 km/h 6.4 km/h 78% 1.27 mm
17:29 8.2 °C 4.7 °C 1014.4 hPa SW 1.6 km/h 4.8 km/h 79% 1.27 mm
17:34 8.1 °C 5 °C 1014.4 hPa SW 1.6 km/h 4.8 km/h 81% 1.27 mm
17:39 8 °C 4.9 °C 1014.4 hPa SW 3.2 km/h 8 km/h 81% 1.27 mm
17:44 7.9 °C 5 °C 1014.4 hPa SSW 3.2 km/h 9.7 km/h 82% 1.27 mm
17:49 7.7 °C 4.8 °C 1014.4 hPa SSW 1.6 km/h 9.7 km/h 82% 1.27 mm
17:54 7.7 °C 5 °C 1014.4 hPa SW 1.6 km/h 4.8 km/h 83% 1.02 mm
17:59 7.6 °C 4.9 °C 1014.4 hPa SW 3.2 km/h 4.8 km/h 83% 0.76 mm
18:04 7.6 °C 5.1 °C 1014.8 hPa West 3.2 km/h 4.8 km/h 84% 0.76 mm
18:09 7.6 °C 5.1 °C 1015.5 hPa West 3.2 km/h 8 km/h 84% 0.51 mm
18:14 7.6 °C 5.1 °C 1014.8 hPa West 3.2 km/h 8 km/h 84% 0.51 mm
18:19 7.7 °C 5.2 °C 1014.8 hPa SW 4.8 km/h 11.3 km/h 84% 0.25 mm
18:24 7.8 °C 5.1 °C 1014.8 hPa SW 4.8 km/h 11.3 km/h 83% 0.25 mm
18:29 7.9 °C 5.2 °C 1014.8 hPa SW 3.2 km/h 9.7 km/h 83% 0.25 mm
18:34 7.9 °C 5.2 °C 1014.8 hPa SW 1.6 km/h 4.8 km/h 83% 0.25 mm
18:39 7.9 °C 5.2 °C 1014.8 hPa SW 1.6 km/h 4.8 km/h 83% 0.25 mm
18:44 7.8 °C 5.1 °C 1014.8 hPa SW 1.6 km/h 4.8 km/h 83% 0 mm
18:49 7.8 °C 5.1 °C 1014.8 hPa SSW 3.2 km/h 6.4 km/h 83% 0 mm
18:54 7.8 °C 5.2 °C 1014.8 hPa SSW 3.2 km/h 6.4 km/h 84% 0 mm
18:59 7.8 °C 5.2 °C 1014.4 hPa SW 1.6 km/h 4.8 km/h 84% 0 mm
19:04 7.8 °C 5.2 °C 1014.4 hPa Calm   3.2 km/h 84% 0 mm
19:09 7.8 °C 5.2 °C 1014.4 hPa SW 3.2 km/h 3.2 km/h 84% 0 mm
19:14 7.8 °C 5.3 °C 1014.4 hPa SW 1.6 km/h 6.4 km/h 84% 0 mm
19:19 7.9 °C 5.5 °C 1014.4 hPa SW 1.6 km/h 6.4 km/h 85% 0 mm
19:24 7.9 °C 5.6 °C 1014.4 hPa SW 1.6 km/h 4.8 km/h 85% 0 mm
19:29 8.1 °C 5.7 °C 1014.8 hPa SW 3.2 km/h 4.8 km/h 85% 0 mm
19:34 8.1 °C 5.7 °C 1014.8 hPa SW 3.2 km/h 6.4 km/h 85% 0 mm
19:39 8.2 °C 5.8 °C 1014.8 hPa Calm   6.4 km/h 85% 0 mm
19:44 8.2 °C 5.8 °C 1014.8 hPa SW 1.6 km/h 6.4 km/h 85% 0 mm
19:49 8.3 °C 6.1 °C 1014.8 hPa SW 1.6 km/h 4.8 km/h 86% 0 mm
19:54 8.3 °C 5.9 °C 1014.8 hPa SSW 4.8 km/h 6.4 km/h 85% 0 mm
19:59 8.3 °C 5.9 °C 1014.8 hPa SW 3.2 km/h 9.7 km/h 85% 0 mm
20:04 8.2 °C 5.8 °C 1014.8 hPa SW 1.6 km/h 9.7 km/h 85% 0 mm
20:09 8.1 °C 5.7 °C 1014.8 hPa SSW 1.6 km/h 4.8 km/h 85% 0 mm
20:14 7.9 °C 5.6 °C 1014.8 hPa SSW 3.2 km/h 6.4 km/h 85% 0 mm
20:19 7.8 °C 5.6 °C 1014.8 hPa SSW 3.2 km/h 6.4 km/h 86% 0 mm
20:24 7.7 °C 5.5 °C 1014.8 hPa SSW 3.2 km/h 6.4 km/h 86% 0 mm
20:29 7.6 °C 5.4 °C 1014.8 hPa SSW 4.8 km/h 8 km/h 86% 0 mm
20:34 7.6 °C 5.4 °C 1014.8 hPa South 4.8 km/h 8 km/h 86% 0 mm
20:39 7.6 °C 5.6 °C 1014.8 hPa SSW 3.2 km/h 6.4 km/h 87% 0 mm
20:44 7.6 °C 5.6 °C 1014.8 hPa SSW 3.2 km/h 6.4 km/h 87% 0 mm
20:49 7.5 °C 5.5 °C 1014.8 hPa SSW 3.2 km/h 6.4 km/h 87% 0 mm
20:54 7.6 °C 5.6 °C 1014.8 hPa SSW 4.8 km/h 6.4 km/h 87% 0 mm
20:59 7.6 °C 5.6 °C 1014.8 hPa South 4.8 km/h 6.4 km/h 87% 0 mm
21:04 7.6 °C 5.6 °C 1014.8 hPa South 4.8 km/h 8 km/h 87% 0 mm
21:09 7.6 °C 5.6 °C 1014.8 hPa South 3.2 km/h 6.4 km/h 87% 0 mm
21:14 7.6 °C 5.7 °C 1015.1 hPa SW 4.8 km/h 8 km/h 88% 0 mm
21:19 7.6 °C 5.6 °C 1015.1 hPa SSW 4.8 km/h 9.7 km/h 87% 0 mm
21:24 7.6 °C 5.6 °C 1015.1 hPa SSW 4.8 km/h 9.7 km/h 87% 0 mm
21:29 7.6 °C 5.6 °C 1015.1 hPa SSW 4.8 km/h 8 km/h 87% 0 mm
21:34 7.6 °C 5.7 °C 1015.1 hPa South 3.2 km/h 9.7 km/h 88% 0 mm
21:39 7.6 °C 5.7 °C 1015.1 hPa SW 3.2 km/h 9.7 km/h 88% 0 mm
21:44 7.6 °C 5.7 °C 1015.1 hPa SSW 3.2 km/h 9.7 km/h 88% 0 mm
21:49 7.7 °C 5.8 °C 1015.1 hPa SW 3.2 km/h 9.7 km/h 88% 0 mm
21:54 7.6 °C 5.7 °C 1015.1 hPa SW 4.8 km/h 8 km/h 88% 0 mm
21:59 7.7 °C 5.8 °C 1015.1 hPa SSW 4.8 km/h 9.7 km/h 88% 0 mm
22:04 7.7 °C 5.8 °C 1014.8 hPa SSW 4.8 km/h 9.7 km/h 88% 0 mm
22:09 7.7 °C 5.8 °C 1014.8 hPa SSW 1.6 km/h 6.4 km/h 88% 0 mm
22:14 7.8 °C 5.9 °C 1014.8 hPa SW 3.2 km/h 8 km/h 88% 0 mm
22:19 7.8 °C 5.9 °C 1014.8 hPa SSW 6.4 km/h 6.4 km/h 88% 0 mm
22:24 7.8 °C 5.9 °C 1014.8 hPa SSW 3.2 km/h 6.4 km/h 88% 0 mm
22:29 7.8 °C 5.9 °C 1014.8 hPa West 1.6 km/h 4.8 km/h 88% 0 mm
22:34 7.9 °C 6 °C 1014.8 hPa Calm   3.2 km/h 88% 0 mm
22:39 7.9 °C 6 °C 1014.8 hPa Calm     88% 0 mm
22:44 7.8 °C 5.9 °C 1014.8 hPa Calm   3.2 km/h 88% 0 mm
22:49 7.8 °C 5.9 °C 1014.8 hPa Calm     88% 0 mm
22:54 7.8 °C 5.9 °C 1014.4 hPa Calm     88% 0 mm
22:59 7.8 °C 5.9 °C 1014.8 hPa Calm     88% 0 mm
23:04 7.8 °C 5.9 °C 1014.4 hPa Calm     88% 0 mm
23:09 7.8 °C 5.9 °C 1014.8 hPa Calm     88% 0 mm
23:14 7.8 °C 5.9 °C 1014.4 hPa Calm     88% 0 mm
23:19 7.9 °C 6 °C 1014.4 hPa Calm     88% 0 mm
23:24 7.9 °C 6 °C 1014.4 hPa Calm     88% 0 mm
23:29 7.9 °C 6.1 °C 1014.4 hPa Calm     88% 0 mm
23:34 7.9 °C 6.1 °C 1014.4 hPa Calm     88% 0 mm
23:39 7.9 °C 6.1 °C 1014.4 hPa Calm     88% 0 mm
23:44 7.9 °C 6 °C 1014.8 hPa Calm     88% 0 mm
23:49 7.8 °C 5.9 °C 1014.4 hPa Calm     88% 0 mm
23:54 7.8 °C 5.9 °C 1014.4 hPa Calm     88% 0 mm
23:59 7.8 °C 5.9 °C 1014.1 hPa Calm     88% 0 mm
Buffalo, New York, USA
Compliments of Weather Underground - 2.5 mb